createdAt,value
2022-08-30T00:00:27.024Z,11.52
2022-08-30T00:01:06.515Z,11.05
2022-08-30T00:01:38.741Z,11.80
2022-08-30T00:02:11.042Z,10.77
2022-08-30T00:02:43.753Z,10.90
2022-08-30T00:03:19.583Z,12.00
2022-08-30T00:03:53.059Z,11.20
2022-08-30T00:04:26.501Z,11.25
2022-08-30T00:05:01.790Z,11.50
2022-08-30T00:05:34.978Z,12.68
2022-08-30T00:06:08.601Z,10.48
2022-08-30T00:06:43.397Z,11.70
2022-08-30T00:07:15.905Z,12.18
2022-08-30T00:07:48.570Z,12.43
2022-08-30T00:08:23.875Z,10.52
2022-08-30T00:08:56.470Z,11.68
2022-08-30T00:09:28.710Z,10.80
2022-08-30T00:10:03.627Z,10.30
2022-08-30T00:10:36.063Z,11.60
2022-08-30T00:11:14.870Z,10.68
2022-08-30T00:11:50.280Z,10.60
2022-08-30T00:12:22.490Z,11.35
2022-08-30T00:12:55.212Z,10.57
2022-08-30T00:13:30.670Z,13.43
2022-08-30T00:14:02.904Z,12.07
2022-08-30T00:14:35.187Z,10.65
2022-08-30T00:15:10.626Z,10.88
2022-08-30T00:15:45.184Z,10.85
2022-08-30T00:16:18.384Z,11.38
2022-08-30T00:16:53.177Z,11.85
2022-08-30T00:17:25.399Z,11.20
2022-08-30T00:17:57.621Z,10.35
2022-08-30T00:18:32.437Z,11.95
2022-08-30T00:19:05.286Z,12.25
2022-08-30T00:19:38.276Z,11.48
2022-08-30T00:20:18.119Z,9.98
2022-08-30T00:20:51.276Z,11.52
2022-08-30T00:21:27.242Z,10.60
2022-08-30T00:21:59.559Z,11.60
2022-08-30T00:22:33.174Z,11.65
2022-08-30T00:23:09.201Z,10.40
2022-08-30T00:23:42.119Z,10.40
2022-08-30T00:24:14.371Z,10.50
2022-08-30T00:24:49.601Z,11.00
2022-08-30T00:25:23.437Z,11.05
2022-08-30T00:25:55.665Z,11.48
2022-08-30T00:26:33.014Z,11.80
2022-08-30T00:27:05.506Z,11.57
2022-08-30T00:27:37.669Z,12.07
2022-08-30T00:28:12.555Z,12.50
2022-08-30T00:28:44.776Z,10.05
2022-08-30T00:29:16.959Z,10.95
2022-08-30T00:29:51.649Z,11.32
2022-08-30T00:30:24.191Z,11.52
2022-08-30T00:30:56.456Z,10.27
2022-08-30T00:31:31.537Z,10.93
2022-08-30T00:32:04.206Z,10.80
2022-08-30T00:32:36.462Z,10.77
2022-08-30T00:33:11.292Z,11.30
2022-08-30T00:33:43.695Z,10.75
2022-08-30T00:34:16.865Z,10.48
2022-08-30T00:34:51.750Z,11.85
2022-08-30T00:35:25.233Z,10.30
2022-08-30T00:35:57.547Z,10.60
2022-08-30T00:36:32.310Z,10.80
2022-08-30T00:37:04.801Z,10.40
2022-08-30T00:37:37.185Z,10.52
2022-08-30T00:38:11.827Z,10.15
2022-08-30T00:38:46.675Z,10.18
2022-08-30T00:39:18.957Z,9.55
2022-08-30T00:39:51.452Z,10.40
2022-08-30T00:40:27.611Z,10.98
2022-08-30T00:40:59.996Z,10.45
2022-08-30T00:41:35.422Z,10.18
2022-08-30T00:42:13.097Z,9.48
2022-08-30T00:42:50.544Z,10.60
2022-08-30T00:43:27.734Z,10.43
2022-08-30T00:44:02.845Z,9.93
2022-08-30T00:44:35.527Z,12.35
2022-08-30T00:45:13.263Z,11.18
2022-08-30T00:45:45.695Z,10.25
2022-08-30T00:46:20.424Z,9.95
2022-08-30T00:46:52.709Z,10.63
2022-08-30T00:47:24.945Z,10.88
2022-08-30T00:48:00.374Z,11.13
2022-08-30T00:48:33.900Z,11.07
2022-08-30T00:49:12.157Z,11.73
2022-08-30T00:49:48.488Z,11.38
2022-08-30T00:50:23.563Z,11.73
2022-08-30T00:51:02.092Z,13.00
2022-08-30T00:51:35.009Z,10.27
2022-08-30T00:52:07.978Z,10.80
2022-08-30T00:52:45.522Z,11.63
2022-08-30T00:53:24.985Z,10.77
2022-08-30T00:54:00.072Z,10.82
2022-08-30T00:54:34.310Z,11.18
2022-08-30T00:55:07.773Z,10.93
2022-08-30T00:55:44.262Z,10.40
2022-08-30T00:56:18.210Z,10.48
2022-08-30T00:56:53.518Z,11.25
2022-08-30T00:57:28.575Z,11.52
2022-08-30T00:58:05.831Z,12.20
2022-08-30T00:58:42.821Z,11.73
2022-08-30T00:59:18.176Z,12.15
2022-08-30T00:59:50.940Z,10.13
2022-08-30T01:00:23.646Z,10.60
2022-08-30T01:01:01.874Z,11.40
2022-08-30T01:01:36.219Z,10.45
2022-08-30T01:02:10.395Z,10.30
2022-08-30T01:02:45.528Z,11.48
2022-08-30T01:03:21.475Z,12.65
2022-08-30T01:03:54.519Z,10.50
2022-08-30T01:04:30.104Z,11.45
2022-08-30T01:05:04.170Z,11.50
2022-08-30T01:05:38.734Z,10.70
2022-08-30T01:06:15.701Z,10.57
2022-08-30T01:06:48.312Z,11.68
2022-08-30T01:07:20.474Z,11.55
2022-08-30T01:07:55.375Z,10.32
2022-08-30T01:08:27.548Z,10.13
2022-08-30T01:09:01.189Z,10.70
2022-08-30T01:09:36.095Z,10.52
2022-08-30T01:10:10.625Z,11.40
2022-08-30T01:10:44.066Z,10.57
2022-08-30T01:11:23.269Z,10.32
2022-08-30T01:11:58.178Z,10.50
2022-08-30T01:12:30.842Z,11.15
2022-08-30T01:13:05.810Z,10.13
2022-08-30T01:13:38.608Z,10.50
2022-08-30T01:14:14.505Z,10.43
2022-08-30T01:14:47.446Z,11.75
2022-08-30T01:15:21.274Z,10.45
2022-08-30T01:15:54.120Z,11.20
2022-08-30T01:16:32.996Z,10.88
2022-08-30T01:17:06.010Z,10.75
2022-08-30T01:17:38.966Z,11.57
2022-08-30T01:18:17.569Z,11.20
2022-08-30T01:18:52.331Z,10.60
2022-08-30T01:19:31.793Z,12.15
2022-08-30T01:20:09.925Z,11.45
2022-08-30T01:20:49.651Z,10.30
2022-08-30T01:21:28.218Z,10.57
2022-08-30T01:22:12.943Z,10.80
2022-08-30T01:22:59.959Z,11.30
2022-08-30T01:23:33.678Z,10.85
2022-08-30T01:24:11.579Z,10.50
2022-08-30T01:24:47.843Z,11.32
2022-08-30T01:25:23.709Z,11.65
2022-08-30T01:26:00.115Z,11.23
2022-08-30T01:26:34.938Z,11.13
2022-08-30T01:27:07.138Z,12.10
2022-08-30T01:27:46.152Z,11.50
2022-08-30T01:28:23.293Z,12.07
2022-08-30T01:29:01.875Z,12.27
2022-08-30T01:29:34.382Z,11.82
2022-08-30T01:30:08.971Z,13.35
2022-08-30T01:30:44.926Z,11.50
2022-08-30T01:31:17.309Z,11.25
2022-08-30T01:31:49.594Z,12.50
2022-08-30T01:32:29.458Z,12.10
2022-08-30T01:33:04.687Z,12.85
2022-08-30T01:33:38.325Z,12.27
2022-08-30T01:34:13.241Z,12.27
2022-08-30T01:34:45.662Z,12.60
2022-08-30T01:35:20.530Z,13.00
2022-08-30T01:35:57.741Z,14.23
2022-08-30T01:36:29.999Z,13.20
2022-08-30T01:37:02.415Z,12.30
2022-08-30T01:37:39.326Z,12.63
2022-08-30T01:38:15.071Z,12.20
2022-08-30T01:38:49.594Z,12.48
2022-08-30T01:39:24.891Z,12.40
2022-08-30T01:39:57.142Z,12.48
2022-08-30T01:40:29.494Z,12.32
2022-08-30T01:41:12.850Z,13.15
2022-08-30T01:41:45.751Z,12.40
2022-08-30T01:42:18.330Z,15.23
2022-08-30T01:42:53.112Z,11.77
2022-08-30T01:43:25.553Z,11.50
2022-08-30T01:43:59.652Z,11.25
2022-08-30T01:44:34.521Z,12.00
2022-08-30T01:45:08.769Z,12.18
2022-08-30T01:45:41.160Z,12.35
2022-08-30T01:46:18.001Z,11.43
2022-08-30T01:46:50.156Z,11.95
2022-08-30T01:47:23.142Z,11.35
2022-08-30T01:47:55.367Z,12.15
2022-08-30T01:48:30.194Z,11.57
2022-08-30T01:49:06.857Z,12.55
2022-08-30T01:49:42.619Z,11.35
2022-08-30T01:50:14.946Z,10.60
2022-08-30T01:50:48.403Z,11.45
2022-08-30T01:51:23.635Z,11.07
2022-08-30T01:52:00.908Z,10.35
2022-08-30T01:52:34.128Z,10.77
2022-08-30T01:53:09.204Z,10.60
2022-08-30T01:53:48.067Z,10.82
2022-08-30T01:54:20.265Z,11.80
2022-08-30T01:55:02.283Z,12.00
2022-08-30T01:55:34.943Z,11.18
2022-08-30T01:56:08.129Z,11.30
2022-08-30T01:56:42.900Z,13.43
2022-08-30T01:57:18.508Z,12.02
2022-08-30T01:57:50.720Z,11.18
2022-08-30T01:58:25.934Z,9.98
2022-08-30T01:59:02.542Z,11.35
2022-08-30T01:59:35.312Z,11.68
2022-08-30T02:00:12.867Z,12.05
2022-08-30T02:00:45.089Z,10.40
2022-08-30T02:01:20.130Z,11.20
2022-08-30T02:01:55.198Z,11.82
2022-08-30T02:02:29.628Z,10.55
2022-08-30T02:03:01.831Z,10.60
2022-08-30T02:03:37.430Z,10.65
2022-08-30T02:04:11.980Z,10.02
2022-08-30T02:04:44.823Z,10.80
2022-08-30T02:05:19.934Z,11.10
2022-08-30T02:05:52.354Z,11.32
2022-08-30T02:06:24.633Z,10.45
2022-08-30T02:06:59.537Z,11.52
2022-08-30T02:07:32.060Z,11.45
2022-08-30T02:08:04.902Z,11.85
2022-08-30T02:08:40.692Z,11.15
2022-08-30T02:09:15.565Z,11.15
2022-08-30T02:09:51.070Z,10.43
2022-08-30T02:10:23.943Z,11.32
2022-08-30T02:10:56.126Z,10.40
2022-08-30T02:11:31.061Z,13.43
2022-08-30T02:12:04.713Z,12.00
2022-08-30T02:12:36.878Z,11.82
2022-08-30T02:13:11.788Z,10.27
2022-08-30T02:13:45.692Z,11.43
2022-08-30T02:14:17.837Z,11.60
2022-08-30T02:14:56.134Z,10.77
2022-08-30T02:15:28.528Z,11.55
2022-08-30T02:16:00.681Z,11.13
2022-08-30T02:16:35.742Z,10.20
2022-08-30T02:17:09.631Z,10.23
2022-08-30T02:17:42.557Z,10.73
2022-08-30T02:18:17.275Z,12.02
2022-08-30T02:18:49.795Z,12.00
2022-08-30T02:19:21.938Z,11.82
2022-08-30T02:19:56.857Z,11.20
2022-08-30T02:20:29.205Z,11.35
2022-08-30T02:21:01.903Z,11.60
2022-08-30T02:21:37.225Z,11.90
2022-08-30T02:22:09.778Z,11.10
2022-08-30T02:22:47.582Z,12.75
2022-08-30T02:23:24.186Z,11.45
2022-08-30T02:23:56.471Z,11.75
2022-08-30T02:24:31.387Z,12.13
2022-08-30T02:25:07.375Z,11.73
2022-08-30T02:25:50.894Z,11.20
2022-08-30T02:26:23.656Z,10.82
2022-08-30T02:26:58.438Z,11.52
2022-08-30T02:27:30.664Z,11.48
2022-08-30T02:28:03.161Z,12.15
2022-08-30T02:28:35.866Z,11.65
2022-08-30T02:29:25.830Z,11.60
2022-08-30T02:29:58.013Z,11.27
2022-08-30T02:30:30.233Z,12.32
2022-08-30T02:31:05.083Z,10.75
2022-08-30T02:31:37.394Z,11.45
2022-08-30T02:32:09.609Z,11.15
2022-08-30T02:32:44.367Z,12.30
2022-08-30T02:33:16.759Z,11.48
2022-08-30T02:33:50.560Z,11.98
2022-08-30T02:34:25.346Z,11.10
2022-08-30T02:34:57.498Z,12.02
2022-08-30T02:35:29.831Z,11.68
2022-08-30T02:36:05.211Z,11.27
2022-08-30T02:36:39.599Z,10.45
2022-08-30T02:37:11.911Z,11.98
2022-08-30T02:37:46.714Z,11.40
2022-08-30T02:38:20.078Z,11.23
2022-08-30T02:38:52.728Z,11.02
2022-08-30T02:39:27.468Z,12.15
2022-08-30T02:40:02.282Z,11.95
2022-08-30T02:40:34.889Z,12.77
2022-08-30T02:41:13.879Z,11.10
2022-08-30T02:41:46.326Z,11.15
2022-08-30T02:42:21.124Z,11.07
2022-08-30T02:42:53.273Z,11.52
2022-08-30T02:43:25.989Z,11.30
2022-08-30T02:44:01.083Z,13.05
2022-08-30T02:44:33.298Z,11.35
2022-08-30T02:45:06.562Z,10.98
2022-08-30T02:45:41.412Z,11.25
2022-08-30T02:46:13.871Z,10.75
2022-08-30T02:46:46.114Z,10.27
2022-08-30T02:47:20.862Z,11.90
2022-08-30T02:47:53.362Z,11.60
2022-08-30T02:48:25.783Z,12.13
2022-08-30T02:49:12.983Z,10.68
2022-08-30T02:49:52.908Z,12.00
2022-08-30T02:50:29.683Z,10.63
2022-08-30T02:51:06.794Z,10.80
2022-08-30T02:51:41.790Z,11.73
2022-08-30T02:52:16.728Z,11.75
2022-08-30T02:52:49.137Z,11.43
2022-08-30T02:53:21.893Z,11.80
2022-08-30T02:53:57.510Z,11.45
2022-08-30T02:54:32.498Z,12.32
2022-08-30T02:55:08.519Z,12.32
2022-08-30T02:55:43.475Z,12.32
2022-08-30T02:56:16.491Z,12.25
2022-08-30T02:56:49.892Z,12.43
2022-08-30T02:57:24.745Z,12.50
2022-08-30T02:57:57.191Z,11.90
2022-08-30T02:58:29.463Z,12.57
2022-08-30T02:59:05.419Z,12.95
2022-08-30T02:59:41.809Z,11.43
2022-08-30T03:00:19.942Z,11.32
2022-08-30T03:00:52.632Z,12.05
2022-08-30T03:01:29.202Z,11.77
2022-08-30T03:02:04.246Z,12.77
2022-08-30T03:02:36.407Z,12.57
2022-08-30T03:03:09.126Z,12.77
2022-08-30T03:03:45.705Z,12.05
2022-08-30T03:04:17.947Z,12.50
2022-08-30T03:04:58.864Z,11.90
2022-08-30T03:05:34.427Z,14.30
2022-08-30T03:06:07.327Z,12.73
2022-08-30T03:06:39.662Z,12.45
2022-08-30T03:07:15.284Z,12.02
2022-08-30T03:07:47.735Z,12.10
2022-08-30T03:08:19.931Z,11.93
2022-08-30T03:08:54.701Z,12.50
2022-08-30T03:09:26.885Z,12.80
2022-08-30T03:09:59.081Z,13.05
2022-08-30T03:10:36.485Z,12.65
2022-08-30T03:11:10.527Z,12.82
2022-08-30T03:11:42.816Z,12.60
2022-08-30T03:12:17.600Z,15.43
2022-08-30T03:12:49.844Z,13.45
2022-08-30T03:13:21.982Z,13.15
2022-08-30T03:13:56.738Z,13.15
2022-08-30T03:14:29.148Z,22.58
2022-08-30T03:15:01.415Z,13.88
2022-08-30T03:15:36.527Z,13.23
2022-08-30T03:16:08.958Z,13.95
2022-08-30T03:16:41.162Z,13.80
2022-08-30T03:17:16.903Z,13.32
2022-08-30T03:17:49.023Z,17.35
2022-08-30T03:18:21.954Z,15.18
2022-08-30T03:18:56.709Z,16.95
2022-08-30T03:19:29.145Z,13.10
2022-08-30T03:20:02.287Z,14.43
2022-08-30T03:20:37.892Z,15.07
2022-08-30T03:21:11.922Z,14.63
2022-08-30T03:21:45.023Z,14.57
2022-08-30T03:22:20.288Z,13.68
2022-08-30T03:22:53.159Z,15.73
2022-08-30T03:23:25.398Z,15.80
2022-08-30T03:24:00.095Z,14.40
2022-08-30T03:24:32.451Z,14.25
2022-08-30T03:25:06.174Z,15.00
2022-08-30T03:25:43.738Z,13.68
2022-08-30T03:26:16.204Z,14.63
2022-08-30T03:26:51.030Z,12.57
2022-08-30T03:27:23.687Z,15.15
2022-08-30T03:27:55.984Z,13.38
2022-08-30T03:28:30.869Z,14.20
2022-08-30T03:29:03.717Z,13.65
2022-08-30T03:29:36.269Z,12.85
2022-08-30T03:30:13.207Z,14.77
2022-08-30T03:30:45.605Z,14.82
2022-08-30T03:31:17.853Z,14.95
2022-08-30T03:31:53.900Z,14.90
2022-08-30T03:32:26.520Z,14.73
2022-08-30T03:32:59.026Z,17.25
2022-08-30T03:33:34.405Z,16.52
2022-08-30T03:34:06.665Z,14.18
2022-08-30T03:34:38.848Z,14.65
2022-08-30T03:35:14.166Z,15.95
2022-08-30T03:35:46.363Z,15.15
2022-08-30T03:36:21.490Z,17.58
2022-08-30T03:36:55.437Z,17.25
2022-08-30T03:37:27.847Z,16.67
2022-08-30T03:38:02.678Z,16.00
2022-08-30T03:38:34.859Z,16.00
2022-08-30T03:39:08.106Z,15.32
2022-08-30T03:39:47.519Z,16.38
2022-08-30T03:40:22.393Z,15.05
2022-08-30T03:40:58.501Z,16.30
2022-08-30T03:41:33.242Z,18.55
2022-08-30T03:42:05.809Z,16.58
2022-08-30T03:42:38.210Z,16.80
2022-08-30T03:43:14.933Z,17.13
2022-08-30T03:43:47.536Z,18.08
2022-08-30T03:44:20.490Z,16.42
2022-08-30T03:44:53.804Z,15.43
2022-08-30T03:45:28.762Z,17.40
2022-08-30T03:46:01.445Z,17.20
2022-08-30T03:46:37.188Z,15.60
2022-08-30T03:47:12.398Z,17.65
2022-08-30T03:47:45.397Z,16.38
2022-08-30T03:48:17.978Z,16.83
2022-08-30T03:48:52.792Z,15.90
2022-08-30T03:49:25.107Z,16.92
2022-08-30T03:49:57.962Z,16.40
2022-08-30T03:50:33.401Z,15.77
2022-08-30T03:51:06.034Z,17.00
2022-08-30T03:51:38.394Z,15.88
2022-08-30T03:52:13.255Z,16.15
2022-08-30T03:52:45.903Z,14.55
2022-08-30T03:53:18.267Z,16.08
2022-08-30T03:53:50.618Z,16.10
2022-08-30T03:54:25.407Z,17.52
2022-08-30T03:54:57.995Z,16.67
2022-08-30T03:55:30.926Z,16.25
2022-08-30T03:56:08.786Z,17.08
2022-08-30T03:56:41.425Z,16.60
2022-08-30T03:57:19.746Z,14.55
2022-08-30T03:57:55.238Z,14.63
2022-08-30T03:58:28.994Z,16.38
2022-08-30T03:59:01.114Z,15.82
2022-08-30T03:59:36.039Z,16.42
2022-08-30T04:00:11.075Z,16.48
2022-08-30T04:00:46.446Z,15.48
2022-08-30T04:01:21.434Z,15.95
2022-08-30T04:01:54.171Z,14.15
2022-08-30T04:02:27.015Z,17.30
2022-08-30T04:03:01.922Z,15.60
2022-08-30T04:03:34.477Z,15.27
2022-08-30T04:04:06.603Z,14.80
2022-08-30T04:04:38.804Z,17.15
2022-08-30T04:05:14.800Z,16.23
2022-08-30T04:05:50.790Z,15.13
2022-08-30T04:06:23.128Z,15.85
2022-08-30T04:06:57.931Z,16.80
2022-08-30T04:07:30.079Z,16.17
2022-08-30T04:08:02.409Z,17.27
2022-08-30T04:08:38.355Z,15.13
2022-08-30T04:09:10.734Z,16.08
2022-08-30T04:09:42.905Z,15.43
2022-08-30T04:10:17.763Z,16.55
2022-08-30T04:10:50.911Z,15.63
2022-08-30T04:11:25.783Z,16.33
2022-08-30T04:12:00.583Z,16.27
2022-08-30T04:12:32.757Z,16.27
2022-08-30T04:13:05.806Z,17.85
2022-08-30T04:13:40.606Z,15.80
2022-08-30T04:14:12.849Z,16.35
2022-08-30T04:14:45.045Z,17.67
2022-08-30T04:15:21.010Z,17.90
2022-08-30T04:15:53.179Z,17.00
2022-08-30T04:16:26.510Z,18.15
2022-08-30T04:17:01.400Z,16.17
2022-08-30T04:17:33.563Z,19.58
2022-08-30T04:18:06.465Z,19.65
2022-08-30T04:18:41.726Z,19.60
2022-08-30T04:19:13.935Z,19.25
2022-08-30T04:19:47.238Z,18.75
2022-08-30T04:20:22.179Z,17.80
2022-08-30T04:20:55.143Z,19.90
2022-08-30T04:21:27.335Z,16.92
2022-08-30T04:22:02.287Z,18.95
2022-08-30T04:22:34.504Z,19.70
2022-08-30T04:23:07.293Z,20.05
2022-08-30T04:23:42.066Z,21.27
2022-08-30T04:24:14.349Z,19.35
2022-08-30T04:24:46.592Z,18.38
2022-08-30T04:25:21.699Z,19.77
2022-08-30T04:25:53.818Z,18.48
2022-08-30T04:26:29.338Z,18.23
2022-08-30T04:27:04.864Z,17.95
2022-08-30T04:27:37.727Z,18.77
2022-08-30T04:28:10.645Z,17.65
2022-08-30T04:28:45.470Z,18.45
2022-08-30T04:29:18.862Z,18.70
2022-08-30T04:29:51.067Z,17.20
2022-08-30T04:30:25.778Z,19.23
2022-08-30T04:30:57.963Z,18.90
2022-08-30T04:31:31.480Z,20.38
2022-08-30T04:32:07.084Z,20.08
2022-08-30T04:32:39.532Z,19.42
2022-08-30T04:33:13.388Z,19.40
2022-08-30T04:33:48.267Z,20.55
2022-08-30T04:34:20.486Z,17.45
2022-08-30T04:34:56.787Z,18.55
2022-08-30T04:35:31.646Z,18.50
2022-08-30T04:36:05.901Z,19.10
2022-08-30T04:36:38.670Z,17.55
2022-08-30T04:37:13.526Z,19.73
2022-08-30T04:37:46.039Z,17.95
2022-08-30T04:38:18.507Z,19.20
2022-08-30T04:38:57.125Z,18.52
2022-08-30T04:39:29.531Z,19.17
2022-08-30T04:40:01.878Z,18.55
2022-08-30T04:40:36.760Z,18.60
2022-08-30T04:41:15.133Z,17.40
2022-08-30T04:41:49.982Z,18.80
2022-08-30T04:42:24.778Z,19.90
2022-08-30T04:42:57.120Z,17.85
2022-08-30T04:43:30.612Z,20.45
2022-08-30T04:44:06.540Z,18.42
2022-08-30T04:44:41.395Z,17.95
2022-08-30T04:45:15.817Z,17.80
2022-08-30T04:45:52.445Z,18.50
2022-08-30T04:46:24.917Z,19.63
2022-08-30T04:46:58.124Z,19.08
2022-08-30T04:47:32.851Z,19.10
2022-08-30T04:48:05.178Z,17.38
2022-08-30T04:48:38.184Z,18.35
2022-08-30T04:49:12.894Z,17.77
2022-08-30T04:49:45.057Z,17.20
2022-08-30T04:50:20.030Z,17.73
2022-08-30T04:50:54.865Z,16.88
2022-08-30T04:51:27.045Z,18.77
2022-08-30T04:51:59.371Z,18.75
2022-08-30T04:52:34.200Z,19.58
2022-08-30T04:53:06.454Z,17.15
2022-08-30T04:53:38.599Z,15.93
2022-08-30T04:54:13.796Z,17.00
2022-08-30T04:54:46.016Z,18.77
2022-08-30T04:55:20.399Z,18.30
2022-08-30T04:55:55.316Z,16.08
2022-08-30T04:56:28.530Z,17.23
2022-08-30T04:57:03.680Z,14.80
2022-08-30T04:57:38.547Z,15.40
2022-08-30T04:58:11.219Z,16.55
2022-08-30T04:58:44.161Z,18.25
2022-08-30T04:59:19.101Z,15.38
2022-08-30T04:59:51.399Z,16.63
2022-08-30T05:00:23.970Z,15.43
2022-08-30T05:00:56.233Z,18.40
2022-08-30T05:01:44.633Z,15.80
2022-08-30T05:02:17.874Z,15.85
2022-08-30T05:02:50.536Z,16.13
2022-08-30T05:03:25.542Z,16.42
2022-08-30T05:03:58.734Z,15.57
2022-08-30T05:04:30.910Z,15.27
2022-08-30T05:05:19.053Z,16.00
2022-08-30T05:05:54.307Z,14.30
2022-08-30T05:06:31.181Z,14.30
2022-08-30T05:07:03.394Z,16.50
2022-08-30T05:07:38.404Z,13.52
2022-08-30T05:08:12.902Z,14.52
2022-08-30T05:08:48.507Z,14.40
2022-08-30T05:09:21.730Z,14.23
2022-08-30T05:09:53.987Z,13.75
2022-08-30T05:10:29.788Z,13.45
2022-08-30T05:11:04.846Z,13.55
2022-08-30T05:11:39.791Z,16.00
2022-08-30T05:12:14.546Z,14.10
2022-08-30T05:12:46.820Z,14.23
2022-08-30T05:13:25.968Z,14.82
2022-08-30T05:14:07.967Z,13.95
2022-08-30T05:14:42.837Z,13.43
2022-08-30T05:15:17.977Z,15.65
2022-08-30T05:15:50.274Z,14.38
2022-08-30T05:16:25.140Z,14.30
2022-08-30T05:16:57.402Z,15.02
2022-08-30T05:17:29.596Z,15.23
2022-08-30T05:18:04.620Z,14.73
2022-08-30T05:18:37.545Z,14.45
2022-08-30T05:19:09.792Z,15.10
2022-08-30T05:19:44.796Z,15.68
2022-08-30T05:20:17.341Z,13.10
2022-08-30T05:20:49.527Z,15.40
2022-08-30T05:21:26.686Z,12.35
2022-08-30T05:21:58.847Z,17.08
2022-08-30T05:22:31.122Z,14.23
2022-08-30T05:23:06.903Z,14.40
2022-08-30T05:23:40.124Z,13.88
2022-08-30T05:24:12.409Z,15.15
2022-08-30T05:24:47.166Z,16.00
2022-08-30T05:25:20.783Z,13.98
2022-08-30T05:25:55.543Z,14.70
2022-08-30T05:26:33.114Z,14.13
2022-08-30T05:27:08.347Z,15.38
2022-08-30T05:27:43.109Z,15.02
2022-08-30T05:28:15.448Z,16.30
2022-08-30T05:28:50.598Z,14.13
2022-08-30T05:29:23.145Z,19.10
2022-08-30T05:29:56.224Z,15.43
2022-08-30T05:30:34.445Z,16.48
2022-08-30T05:31:14.744Z,16.33
2022-08-30T05:32:21.571Z,17.38
2022-08-30T05:32:55.684Z,15.60
2022-08-30T05:33:30.553Z,17.50
2022-08-30T05:34:08.442Z,17.52
2022-08-30T05:34:40.579Z,15.45
2022-08-30T05:35:17.245Z,14.73
2022-08-30T05:35:49.421Z,13.95
2022-08-30T05:36:26.832Z,13.10
2022-08-30T05:36:59.606Z,13.07
2022-08-30T05:37:34.409Z,13.98
2022-08-30T05:38:09.369Z,12.98
2022-08-30T05:38:43.047Z,14.35
2022-08-30T05:39:18.864Z,13.25
2022-08-30T05:39:54.197Z,14.38
2022-08-30T05:40:26.521Z,14.18
2022-08-30T05:41:08.259Z,13.35
2022-08-30T05:41:43.175Z,13.38
2022-08-30T05:42:18.618Z,13.40
2022-08-30T05:42:53.401Z,12.80
2022-08-30T05:43:26.925Z,13.23
2022-08-30T05:44:07.017Z,12.05
2022-08-30T05:44:39.234Z,12.32
2022-08-30T05:45:19.596Z,10.05
2022-08-30T05:45:59.114Z,12.18
2022-08-30T05:46:35.615Z,11.67
2022-08-30T05:47:07.827Z,11.88
2022-08-30T05:47:40.426Z,13.18
2022-08-30T05:48:15.331Z,11.50
2022-08-30T05:48:48.071Z,10.50
2022-08-30T05:49:22.937Z,12.27
2022-08-30T05:49:55.078Z,10.38
2022-08-30T05:50:27.245Z,10.50
2022-08-30T05:51:09.057Z,11.88
2022-08-30T05:51:43.292Z,9.43
2022-08-30T05:52:18.348Z,11.18
2022-08-30T05:52:53.217Z,10.80
2022-08-30T05:53:25.641Z,12.73
2022-08-30T05:53:59.345Z,10.85
2022-08-30T05:54:34.161Z,10.25
2022-08-30T05:55:08.207Z,12.93
2022-08-30T05:55:41.552Z,12.75
2022-08-30T05:56:20.595Z,12.20
2022-08-30T05:56:52.773Z,10.90
2022-08-30T05:57:25.637Z,12.68
2022-08-30T05:58:03.517Z,12.60
2022-08-30T05:58:35.958Z,12.20
2022-08-30T05:59:09.208Z,12.73
2022-08-30T05:59:44.109Z,16.90
2022-08-30T06:00:19.080Z,12.48
2022-08-30T06:00:51.230Z,13.82
2022-08-30T06:01:28.592Z,13.80
2022-08-30T06:02:00.967Z,11.27
2022-08-30T06:02:33.451Z,11.10
2022-08-30T06:03:08.507Z,11.60
2022-08-30T06:03:40.840Z,12.00
2022-08-30T06:04:13.666Z,11.68
2022-08-30T06:04:49.451Z,12.48
2022-08-30T06:05:21.975Z,11.23
2022-08-30T06:05:55.279Z,11.75
2022-08-30T06:06:30.597Z,12.25
2022-08-30T06:07:03.339Z,12.23
2022-08-30T06:07:38.551Z,13.15
2022-08-30T06:08:10.826Z,11.77
2022-08-30T06:08:49.253Z,12.20
2022-08-30T06:09:21.754Z,11.30
2022-08-30T06:09:54.138Z,13.50
2022-08-30T06:10:28.898Z,10.90
2022-08-30T06:11:01.148Z,12.52
2022-08-30T06:11:34.507Z,12.50
2022-08-30T06:12:09.893Z,10.02
2022-08-30T06:12:42.088Z,10.88
2022-08-30T06:13:19.473Z,10.27
2022-08-30T06:13:53.035Z,12.35
2022-08-30T06:14:25.308Z,10.00
2022-08-30T06:15:00.213Z,9.25
2022-08-30T06:15:32.397Z,9.43
2022-08-30T06:16:04.812Z,10.55
2022-08-30T06:16:41.589Z,9.63
2022-08-30T06:17:13.854Z,8.45
2022-08-30T06:17:45.974Z,9.00
2022-08-30T06:18:21.622Z,8.70
2022-08-30T06:19:01.774Z,8.82
2022-08-30T06:19:36.557Z,10.32
2022-08-30T06:20:10.655Z,10.23
2022-08-30T06:20:44.494Z,9.77
2022-08-30T06:21:20.371Z,8.23
2022-08-30T06:21:52.593Z,11.77
2022-08-30T06:22:27.317Z,10.63
2022-08-30T06:22:59.439Z,11.73
2022-08-30T06:23:31.939Z,10.90
2022-08-30T06:24:09.048Z,9.15
2022-08-30T06:24:57.070Z,10.77
2022-08-30T06:25:42.147Z,10.60
2022-08-30T06:26:14.941Z,8.05
2022-08-30T06:26:50.443Z,8.88
2022-08-30T06:27:22.628Z,8.68
2022-08-30T06:27:57.422Z,9.43
2022-08-30T06:28:32.427Z,10.82
2022-08-30T06:29:07.322Z,9.32
2022-08-30T06:29:40.264Z,12.20
2022-08-30T06:30:13.039Z,12.23
2022-08-30T06:30:47.763Z,11.07
2022-08-30T06:31:22.200Z,9.48
2022-08-30T06:31:54.925Z,12.57
2022-08-30T06:32:29.778Z,10.93
2022-08-30T06:33:02.261Z,9.70
2022-08-30T06:33:34.639Z,9.77
2022-08-30T06:34:09.926Z,7.70
2022-08-30T06:34:42.130Z,9.45
2022-08-30T06:35:14.456Z,7.97
2022-08-30T06:35:58.238Z,7.93
2022-08-30T06:36:32.301Z,9.98
2022-08-30T06:37:04.717Z,9.93
2022-08-30T06:37:39.659Z,7.03
2022-08-30T06:38:11.837Z,7.82
2022-08-30T06:38:45.410Z,7.53
2022-08-30T06:39:20.177Z,9.32
2022-08-30T06:39:52.347Z,9.45
2022-08-30T06:40:25.056Z,7.68
2022-08-30T06:40:59.971Z,8.55
2022-08-30T06:41:34.401Z,9.13
2022-08-30T06:42:06.721Z,8.07
2022-08-30T06:42:41.798Z,10.75
2022-08-30T06:43:13.996Z,9.48
2022-08-30T06:43:49.433Z,9.85
2022-08-30T06:44:24.223Z,8.52
2022-08-30T06:44:56.662Z,7.55
2022-08-30T06:45:31.096Z,7.43
2022-08-30T06:46:08.711Z,7.32
2022-08-30T06:46:40.973Z,6.80
2022-08-30T06:47:15.824Z,9.05
2022-08-30T06:47:48.865Z,8.20
2022-08-30T06:48:21.026Z,7.60
2022-08-30T06:48:56.346Z,5.50
2022-08-30T06:49:28.642Z,8.48
2022-08-30T06:50:00.810Z,7.43
2022-08-30T06:50:35.911Z,7.32
2022-08-30T06:51:09.236Z,7.88
2022-08-30T06:51:44.139Z,7.63
2022-08-30T06:52:16.449Z,6.88
2022-08-30T06:52:54.010Z,5.40
2022-08-30T06:53:26.858Z,6.35
2022-08-30T06:53:59.825Z,6.15
2022-08-30T06:54:34.651Z,6.57
2022-08-30T06:55:07.729Z,6.55
2022-08-30T06:55:40.146Z,8.57
2022-08-30T06:56:16.763Z,7.10
2022-08-30T06:56:58.321Z,6.00
2022-08-30T06:57:33.562Z,8.38
2022-08-30T06:58:05.995Z,8.40
2022-08-30T06:58:42.404Z,7.32
2022-08-30T06:59:17.332Z,6.70
2022-08-30T06:59:56.654Z,8.38
2022-08-30T07:00:29.431Z,6.13
2022-08-30T07:01:04.199Z,6.22
2022-08-30T07:01:36.441Z,6.70
2022-08-30T07:02:11.613Z,6.30
2022-08-30T07:02:44.139Z,5.57
2022-08-30T07:03:16.587Z,8.10
2022-08-30T07:03:51.914Z,7.70
2022-08-30T07:04:24.495Z,6.80
2022-08-30T07:04:56.754Z,7.68
2022-08-30T07:05:31.623Z,7.25
2022-08-30T07:06:04.662Z,6.93
2022-08-30T07:06:36.855Z,6.75
2022-08-30T07:07:13.456Z,8.80
2022-08-30T07:07:45.696Z,6.68
2022-08-30T07:08:18.569Z,7.70
2022-08-30T07:08:56.067Z,6.45
2022-08-30T07:09:28.967Z,5.90
2022-08-30T07:10:05.960Z,7.38
2022-08-30T07:10:38.681Z,5.35
2022-08-30T07:11:11.506Z,5.07
2022-08-30T07:11:46.481Z,5.30
2022-08-30T07:12:18.868Z,5.60
2022-08-30T07:12:53.607Z,5.47
2022-08-30T07:13:28.347Z,5.63
2022-08-30T07:14:01.577Z,6.90
2022-08-30T07:14:38.978Z,6.93
2022-08-30T07:15:12.366Z,7.00
2022-08-30T07:15:48.391Z,6.72
2022-08-30T07:16:21.159Z,6.38
2022-08-30T07:16:53.340Z,4.82
2022-08-30T07:17:40.615Z,6.57
2022-08-30T07:18:28.416Z,6.88
2022-08-30T07:19:03.533Z,6.68
2022-08-30T07:19:35.673Z,8.02
2022-08-30T07:20:09.107Z,8.90
2022-08-30T07:20:41.346Z,6.18
2022-08-30T07:21:19.089Z,5.30
2022-08-30T07:21:51.306Z,5.00
2022-08-30T07:22:26.032Z,5.35
2022-08-30T07:22:58.273Z,4.63
2022-08-30T07:23:30.571Z,7.72
2022-08-30T07:24:08.773Z,5.75
2022-08-30T07:24:41.147Z,6.38
2022-08-30T07:25:13.630Z,6.35
2022-08-30T07:25:48.639Z,6.82